Here is the Quick Look data you requested

The Data originates at the National Weather Service, and is made available here by the UAlbany Department of Atmospheric and Environmental Sciences

Surface Observations

K40B 180316Z AUTO 17010KT 17/16 A2993 RMK AO1 SLP127 T01720159 57012 60001
K8B0 180255Z AUTO 00000KT 10SM CLR 17/10 A3004 RMK AO2=
KAUG 180253Z AUTO 16004KT 10SM CLR 13/11 A3006 RMK AO2 SLP179 T01280106 58002=
KBGR 180253Z 18007KT 10SM FEW120 BKN150 OVC250 13/10 A3006 RMK AO2 SLP177
 T01280100 58003=
KBHB 180256Z AUTO 18008KT 10SM CLR 12/10 A3009 RMK AO2 SLP192 T01220100 56008 $=
KCAR 180254Z AUTO 17008KT 10SM OVC075 15/12 A2996 RMK AO2 RAE05 SLP149 P0000
 60008 T01500122 58004=
KFVE 180253Z AUTO 16013KT 10SM OVC065 16/14 A2992 RMK AO2 SLP129 60006
 T01610139 56018=
KGNR 180256Z AUTO 13008KT 14/10 A3000 RMK AO1 SLP160 T01390100 56011=
KHUL 180253Z AUTO 18005KT 10SM OVC090 14/05 A3001 RMK AO2 RAE18 SLP164 P0000
 60000 T01390050 58001 $=
KIWI 180253Z AUTO 00000KT 10SM BKN006 12/11 A3008 RMK AO2 SLP185 T01220111
 56008=
KIZG 180254Z AUTO 00000KT 10SM CLR 14/13 A3004 RMK AO2 SLP172 T01440133 50000 $=
KLEW 180256Z AUTO 15003KT 10SM CLR 13/11 A3006 RMK AO2 SLP191 T01280111 58002=
KMLT 180253Z AUTO VRB03KT 10SM FEW042 FEW075 15/08 A3002 RMK AO2 SLP171
 T01500078 58011=
KPQI 180256Z AUTO 18009KT 10SM OVC080 14/11 A2997 RMK AO2 RAE02 SLP191 P0000
 60002 T01440106 58010=
KPWM 180251Z VRB06KT 10SM FEW005 13/12 A3005 RMK AO2 SLP177 T01280122 56005=
KRKD 180256Z AUTO 00000KT 10SM OVC005 12/11 A3007 RMK AO2 SLP184 T01170106
 58010=
KSFM 180256Z AUTO 00000KT 10SM CLR 12/11 A3005 RMK AO2 SLP177 T01170111 56013=
KWVL 180256Z AUTO 00000KT 10SM CLR 13/11 A3003 RMK AO2 SLP195 T01330106 58003 $=